createdAt,value
2023-03-23T16:04:38.308Z,53.23
2023-03-23T16:14:44.051Z,53.75
2023-03-23T16:24:50.372Z,54.26
2023-03-23T16:34:55.964Z,55.23
2023-03-23T16:45:02.136Z,55.92
2023-03-23T16:55:10.240Z,56.97
2023-03-23T17:05:17.774Z,57.71
2023-03-23T17:15:25.792Z,58.65
2023-03-23T17:25:32.090Z,59.31
2023-03-23T17:35:38.075Z,59.83
2023-03-23T17:45:47.028Z,60.46
2023-03-23T17:55:53.465Z,60.89
2023-03-23T18:06:03.620Z,61.37
2023-03-23T18:16:10.826Z,61.85
2023-03-23T18:26:17.374Z,62.24
2023-03-23T18:36:25.676Z,62.73
2023-03-23T18:46:32.336Z,63.06
2023-03-23T18:56:38.644Z,63.40
2023-03-23T19:06:44.792Z,63.86
2023-03-23T19:16:50.642Z,64.23
2023-03-23T19:26:57.260Z,64.70
2023-03-23T19:37:08.834Z,65.29
2023-03-23T19:47:17.242Z,65.55
2023-03-23T19:57:23.533Z,65.25
2023-03-23T20:07:29.969Z,65.01
2023-03-23T20:17:36.397Z,64.77
2023-03-23T20:27:43.734Z,64.60
2023-03-23T20:37:50.700Z,64.46
2023-03-23T20:47:56.417Z,64.63
2023-03-23T20:58:02.577Z,64.75
2023-03-23T21:08:08.462Z,65.07
2023-03-23T21:18:14.738Z,65.46
2023-03-23T21:28:20.581Z,66.04
2023-03-23T21:38:27.969Z,66.54
2023-03-23T21:48:34.165Z,67.01
2023-03-23T21:58:40.720Z,67.58
2023-03-23T22:08:47.531Z,68.29
2023-03-23T22:18:55.242Z,69.07
2023-03-23T22:29:02.322Z,69.77
2023-03-23T22:39:09.109Z,70.63
2023-03-23T22:49:15.152Z,71.22
2023-03-23T22:59:21.578Z,71.68
2023-03-23T23:09:27.517Z,72.27
2023-03-23T23:19:33.542Z,72.70
2023-03-23T23:29:40.696Z,73.35
2023-03-23T23:39:46.387Z,73.64
2023-03-23T23:49:52.366Z,74.29
2023-03-23T23:59:58.199Z,74.84
